createdAt,value
2022-09-23T00:02:39.147Z,6.50
2022-09-23T00:07:42.378Z,4.67
2022-09-23T00:12:45.315Z,5.70
2022-09-23T00:17:49.598Z,6.47
2022-09-23T00:22:53.359Z,5.72
2022-09-23T00:27:56.752Z,6.10
2022-09-23T00:33:01.019Z,6.45
2022-09-23T00:38:04.145Z,6.10
2022-09-23T00:43:09.226Z,6.50
2022-09-23T00:48:16.987Z,6.78
2022-09-23T00:53:26.549Z,6.35
2022-09-23T00:58:32.631Z,5.95
2022-09-23T01:03:36.978Z,6.10
2022-09-23T01:08:40.527Z,6.15
2022-09-23T01:13:52.055Z,5.70
2022-09-23T01:19:05.513Z,5.35
2022-09-23T01:24:46.239Z,4.85
2022-09-23T01:30:18.772Z,6.50
2022-09-23T01:35:28.395Z,6.07
2022-09-23T01:40:40.258Z,6.15
2022-09-23T01:45:46.153Z,6.60
2022-09-23T01:50:57.707Z,6.20
2022-09-23T01:56:05.222Z,5.15
2022-09-23T02:01:11.641Z,6.22
2022-09-23T02:06:21.080Z,4.68
2022-09-23T02:11:24.759Z,4.53
2022-09-23T02:16:33.474Z,5.82
2022-09-23T02:21:42.146Z,5.03
2022-09-23T02:26:49.205Z,5.25
2022-09-23T02:31:58.237Z,5.18
2022-09-23T02:37:19.361Z,6.20
2022-09-23T02:42:25.811Z,5.32
2022-09-23T02:47:32.120Z,5.47
2022-09-23T02:52:38.154Z,5.95
2022-09-23T02:57:41.131Z,5.68
2022-09-23T03:02:57.630Z,5.38
2022-09-23T03:08:16.718Z,5.25
2022-09-23T03:13:29.861Z,4.68
2022-09-23T03:18:40.347Z,5.25
2022-09-23T03:23:46.350Z,6.10
2022-09-23T03:28:50.318Z,4.72
2022-09-23T03:33:57.002Z,4.90
2022-09-23T03:39:05.953Z,4.25
2022-09-23T03:44:10.623Z,4.95
2022-09-23T03:49:17.005Z,4.63
2022-09-23T03:54:21.606Z,7.85
2022-09-23T03:59:24.820Z,5.07
2022-09-23T04:04:28.280Z,5.18
2022-09-23T04:09:32.879Z,4.55
2022-09-23T04:14:35.970Z,6.10
2022-09-23T04:19:39.246Z,5.70
2022-09-23T04:24:43.890Z,5.28
2022-09-23T04:29:46.873Z,6.80
2022-09-23T04:34:49.885Z,6.47
2022-09-23T04:39:54.295Z,5.30
2022-09-23T04:44:57.993Z,6.45
2022-09-23T04:50:00.965Z,5.95
2022-09-23T04:55:10.517Z,6.18
2022-09-23T05:00:17.856Z,5.55
2022-09-23T05:05:22.427Z,6.82
2022-09-23T05:10:26.709Z,6.63
2022-09-23T05:15:29.710Z,5.97
2022-09-23T05:20:32.709Z,6.50
2022-09-23T05:25:38.451Z,5.60
2022-09-23T05:30:41.606Z,6.43
2022-09-23T05:35:47.310Z,6.75
2022-09-23T05:40:57.166Z,6.55
2022-09-23T05:46:08.248Z,7.03
2022-09-23T05:51:14.986Z,5.78
2022-09-23T05:56:21.205Z,6.57
2022-09-23T06:01:26.054Z,6.68
2022-09-23T06:06:30.823Z,6.45
2022-09-23T06:11:36.219Z,7.07
2022-09-23T06:21:42.404Z,6.78
2022-09-23T06:26:47.879Z,7.30
2022-09-23T06:36:55.567Z,7.45
2022-09-23T06:42:00.241Z,10.40
2022-09-23T06:47:03.551Z,7.90
2022-09-23T06:52:06.700Z,10.23
2022-09-23T06:57:11.261Z,10.40
2022-09-23T07:02:14.444Z,8.77
2022-09-23T07:07:18.677Z,8.02
2022-09-23T07:12:22.993Z,6.72
2022-09-23T07:17:26.176Z,6.88
2022-09-23T07:22:29.331Z,5.65
2022-09-23T07:27:33.701Z,5.00
2022-09-23T07:32:47.732Z,5.80
2022-09-23T07:37:51.870Z,5.38
2022-09-23T07:42:56.691Z,5.45
2022-09-23T07:48:00.011Z,5.13
2022-09-23T07:53:03.092Z,4.70
2022-09-23T07:58:07.437Z,4.85
2022-09-23T08:03:10.905Z,4.07
2022-09-23T08:08:14.236Z,3.33
2022-09-23T08:13:18.509Z,3.63
2022-09-23T08:18:21.474Z,3.70
2022-09-23T08:23:24.916Z,3.55
2022-09-23T08:28:29.417Z,3.20
2022-09-23T08:33:32.491Z,3.38
2022-09-23T08:38:35.898Z,3.42
2022-09-23T08:43:45.690Z,3.35
2022-09-23T08:48:50.106Z,3.63
2022-09-23T08:53:53.308Z,2.90
2022-09-23T08:59:04.111Z,3.08
2022-09-23T09:04:16.241Z,3.70
2022-09-23T09:09:23.840Z,3.28
2022-09-23T09:14:35.949Z,2.83
2022-09-23T09:19:52.679Z,2.78
2022-09-23T09:25:03.355Z,1.95
2022-09-23T09:30:14.430Z,1.98
2022-09-23T09:35:25.576Z,2.60
2022-09-23T09:40:28.746Z,2.67
2022-09-23T09:45:57.596Z,2.85
2022-09-23T09:51:18.740Z,2.30
2022-09-23T09:56:27.277Z,2.83
2022-09-23T10:01:33.854Z,1.40
2022-09-23T10:06:36.871Z,1.58
2022-09-23T10:11:41.245Z,1.77
2022-09-23T10:16:48.869Z,1.70
2022-09-23T10:21:56.772Z,1.45
2022-09-23T10:27:02.041Z,1.50
2022-09-23T10:32:32.607Z,1.23
2022-09-23T10:37:38.694Z,1.50
2022-09-23T10:43:18.922Z,1.58
2022-09-23T10:48:30.655Z,1.25
2022-09-23T10:53:44.687Z,1.50
2022-09-23T10:59:29.232Z,1.70
2022-09-23T11:05:11.469Z,1.42
2022-09-23T11:10:46.308Z,1.00
2022-09-23T11:16:01.457Z,1.55
2022-09-23T11:21:20.582Z,1.40
2022-09-23T11:26:36.598Z,1.20
2022-09-23T11:31:50.328Z,1.45
2022-09-23T11:36:57.535Z,1.40
2022-09-23T11:42:03.315Z,1.10
2022-09-23T11:47:09.160Z,1.30
2022-09-23T11:52:19.571Z,1.20
2022-09-23T11:57:40.779Z,1.02
2022-09-23T12:08:17.940Z,1.58
2022-09-23T12:13:29.975Z,1.08
2022-09-23T12:18:51.051Z,1.00
2022-09-23T12:24:19.024Z,1.00
2022-09-23T12:29:25.673Z,0.90
2022-09-23T12:34:32.563Z,1.38
2022-09-23T12:39:38.536Z,0.95
2022-09-23T12:44:45.319Z,1.10
2022-09-23T12:49:50.800Z,1.02
2022-09-23T12:54:57.488Z,1.00
2022-09-23T13:00:22.483Z,1.00
2022-09-23T13:05:45.044Z,1.05
2022-09-23T13:10:52.401Z,0.95
2022-09-23T13:16:11.664Z,1.20
2022-09-23T13:21:17.781Z,1.00
2022-09-23T13:26:21.002Z,1.23
2022-09-23T13:31:25.578Z,0.90
2022-09-23T13:36:28.952Z,1.02
2022-09-23T13:41:31.923Z,0.85
2022-09-23T13:46:45.674Z,1.00
2022-09-23T13:51:48.628Z,1.20
2022-09-23T13:56:51.564Z,1.30
2022-09-23T14:02:06.936Z,1.00
2022-09-23T14:07:12.990Z,1.08
2022-09-23T14:12:22.052Z,1.00
2022-09-23T14:17:26.391Z,1.40
2022-09-23T14:22:31.030Z,0.80
2022-09-23T14:27:36.442Z,1.05
2022-09-23T14:32:41.570Z,1.10
2022-09-23T14:38:05.442Z,1.10
2022-09-23T14:43:16.811Z,0.88
2022-09-23T14:48:24.251Z,0.88
2022-09-23T14:53:37.428Z,1.10
2022-09-23T14:58:46.960Z,1.30
2022-09-23T15:03:55.614Z,1.08
2022-09-23T15:08:59.085Z,0.90
2022-09-23T15:14:33.098Z,1.23
2022-09-23T15:19:31.240Z,1.30
2022-09-23T15:24:37.187Z,1.65
2022-09-23T15:29:40.287Z,2.95
2022-09-23T15:34:45.055Z,2.38
2022-09-23T15:39:49.058Z,1.27
2022-09-23T15:44:52.113Z,1.20
2022-09-23T15:49:57.788Z,1.70
2022-09-23T15:55:01.149Z,1.10
2022-09-23T16:00:05.210Z,1.20
2022-09-23T16:05:22.436Z,1.55
2022-09-23T16:10:25.674Z,1.60
2022-09-23T16:15:30.464Z,1.83
2022-09-23T16:20:38.128Z,1.70
2022-09-23T16:25:41.152Z,1.30
2022-09-23T16:30:44.273Z,2.85
2022-09-23T16:35:49.128Z,1.30
2022-09-23T16:40:52.900Z,1.63
2022-09-23T16:45:56.301Z,2.92
2022-09-23T16:51:04.790Z,2.15
2022-09-23T16:56:09.733Z,2.13
2022-09-23T17:01:34.249Z,3.03
2022-09-23T17:06:43.258Z,2.08
2022-09-23T17:11:52.490Z,1.55
2022-09-23T17:16:58.704Z,3.55
2022-09-23T17:22:03.966Z,2.88
2022-09-23T17:27:07.145Z,3.35
2022-09-23T17:32:17.822Z,2.35
2022-09-23T17:37:23.249Z,2.45
2022-09-23T17:42:27.796Z,2.67
2022-09-23T17:47:33.878Z,2.17
2022-09-23T17:52:41.904Z,2.90
2022-09-23T17:57:45.002Z,2.78
2022-09-23T18:02:51.301Z,3.72
2022-09-23T18:07:55.768Z,3.53
2022-09-23T18:12:58.923Z,3.73
2022-09-23T18:23:10.456Z,3.95
2022-09-23T18:28:13.480Z,3.58
2022-09-23T18:33:16.587Z,4.47
2022-09-23T18:38:21.314Z,5.70
2022-09-23T18:43:27.447Z,4.83
2022-09-23T18:48:54.510Z,4.78
2022-09-23T18:54:01.216Z,5.18
2022-09-23T18:59:06.313Z,5.53
2022-09-23T19:04:10.023Z,4.35
2022-09-23T19:09:15.869Z,4.78
2022-09-23T19:14:19.922Z,4.90
2022-09-23T19:24:29.470Z,4.97
2022-09-23T19:29:33.400Z,5.53
2022-09-23T19:34:37.708Z,5.00
2022-09-23T19:39:42.394Z,5.18
2022-09-23T19:44:46.820Z,6.13
2022-09-23T19:49:49.896Z,5.82
2022-09-23T19:54:54.557Z,5.53
2022-09-23T19:59:57.505Z,7.23
2022-09-23T20:05:00.995Z,5.75
2022-09-23T20:10:06.807Z,5.97
2022-09-23T20:15:11.715Z,6.25
2022-09-23T20:20:15.796Z,5.88
2022-09-23T20:25:20.133Z,5.80
2022-09-23T20:30:23.265Z,5.78
2022-09-23T20:35:26.183Z,5.78
2022-09-23T20:40:30.540Z,5.95
2022-09-23T20:45:33.543Z,5.55
2022-09-23T20:50:37.275Z,6.55
2022-09-23T20:55:50.353Z,6.45
2022-09-23T21:00:53.800Z,7.07
2022-09-23T21:05:59.703Z,7.40
2022-09-23T21:11:05.814Z,6.43
2022-09-23T21:16:11.309Z,6.93
2022-09-23T21:21:14.793Z,5.88
2022-09-23T21:26:20.882Z,6.35
2022-09-23T21:31:26.151Z,6.78
2022-09-23T21:41:34.959Z,6.10
2022-09-23T21:46:38.106Z,5.63
2022-09-23T21:51:41.578Z,5.70
2022-09-23T21:56:47.952Z,5.75
2022-09-23T22:01:54.189Z,6.03
2022-09-23T22:07:00.090Z,6.00
2022-09-23T22:12:12.664Z,5.90
2022-09-23T22:17:16.461Z,6.15
2022-09-23T22:22:19.521Z,5.78
2022-09-23T22:27:25.409Z,5.80
2022-09-23T22:32:41.159Z,6.60
2022-09-23T22:37:45.343Z,6.00
2022-09-23T22:42:49.701Z,6.45
2022-09-23T22:47:54.689Z,5.65
2022-09-23T22:52:57.663Z,5.93
2022-09-23T22:58:21.333Z,6.15
2022-09-23T23:03:27.017Z,6.90
2022-09-23T23:08:31.084Z,6.55
2022-09-23T23:13:36.146Z,5.40
2022-09-23T23:18:41.199Z,6.07
2022-09-23T23:23:46.312Z,6.20
2022-09-23T23:28:52.072Z,5.80
2022-09-23T23:33:55.328Z,6.13
2022-09-23T23:38:58.565Z,5.70
2022-09-23T23:44:03.018Z,5.43
2022-09-23T23:49:06.672Z,6.15
2022-09-23T23:54:11.784Z,7.40
2022-09-23T23:59:16.230Z,5.85
